sensor_id;sensor_type;location;lat;lon;timestamp;pressure;altitude;pressure_sealevel;temperature;humidity
57616;BME280;43816;52.054;-9.494;2022-11-20T00:00:08;100331.56;;;18.24;46.67
57616;BME280;43816;52.054;-9.494;2022-11-20T00:00:21;100326.97;;;18.24;46.68
57616;BME280;43816;52.054;-9.494;2022-11-20T00:00:32;100335.81;;;18.26;46.93
57616;BME280;43816;52.054;-9.494;2022-11-20T00:00:45;100342.94;;;18.27;46.76
57616;BME280;43816;52.054;-9.494;2022-11-20T00:01:04;100339.88;;;18.30;46.48
57616;BME280;43816;52.054;-9.494;2022-11-20T00:01:16;100336.84;;;18.25;46.80
57616;BME280;43816;52.054;-9.494;2022-11-20T00:01:29;100339.00;;;18.30;46.90
57616;BME280;43816;52.054;-9.494;2022-11-20T00:01:40;100344.44;;;18.30;46.73
57616;BME280;43816;52.054;-9.494;2022-11-20T00:01:50;100346.34;;;18.29;46.65
57616;BME280;43816;52.054;-9.494;2022-11-20T00:02:00;100341.91;;;18.28;46.57
57616;BME280;43816;52.054;-9.494;2022-11-20T00:02:14;100341.72;;;18.30;46.85
57616;BME280;43816;52.054;-9.494;2022-11-20T00:02:24;100327.50;;;18.20;46.74
57616;BME280;43816;52.054;-9.494;2022-11-20T00:02:34;100335.81;;;18.26;46.67
57616;BME280;43816;52.054;-9.494;2022-11-20T00:02:44;100344.63;;;18.28;46.78
57616;BME280;43816;52.054;-9.494;2022-11-20T00:02:55;100349.06;;;18.29;46.50
57616;BME280;43816;52.054;-9.494;2022-11-20T00:03:05;100342.78;;;18.29;46.63
57616;BME280;43816;52.054;-9.494;2022-11-20T00:03:15;100340.22;;;18.27;46.53
57616;BME280;43816;52.054;-9.494;2022-11-20T00:03:28;100342.47;;;18.24;46.82
57616;BME280;43816;52.054;-9.494;2022-11-20T00:03:39;100344.63;;;18.28;46.78
57616;BME280;43816;52.054;-9.494;2022-11-20T00:03:51;100343.78;;;18.28;46.94
57616;BME280;43816;52.054;-9.494;2022-11-20T00:04:04;100317.34;;;18.14;46.78
57616;BME280;43816;52.054;-9.494;2022-11-20T00:04:17;100333.97;;;18.19;47.15
57616;BME280;43816;52.054;-9.494;2022-11-20T00:04:28;100341.41;;;18.25;46.83
57616;BME280;43816;52.054;-9.494;2022-11-20T00:04:38;100338.88;;;18.23;46.80
57616;BME280;43816;52.054;-9.494;2022-11-20T00:04:48;100344.63;;;18.28;46.65
57616;BME280;43816;52.054;-9.494;2022-11-20T00:04:59;100340.59;;;18.24;46.86
57616;BME280;43816;52.054;-9.494;2022-11-20T00:05:09;100343.97;;;18.26;46.83
57616;BME280;43816;52.054;-9.494;2022-11-20T00:05:19;100341.41;;;18.25;46.81
57616;BME280;43816;52.054;-9.494;2022-11-20T00:05:33;100346.50;;;18.28;46.56
57616;BME280;43816;52.054;-9.494;2022-11-20T00:05:44;100341.06;;;18.28;46.61
57616;BME280;43816;52.054;-9.494;2022-11-20T00:06:02;100336.31;;;18.22;46.57
57616;BME280;43816;52.054;-9.494;2022-11-20T00:06:17;100333.81;;;18.20;46.50
57616;BME280;43816;52.054;-9.494;2022-11-20T00:06:28;100346.50;;;18.28;46.69
57616;BME280;43816;52.054;-9.494;2022-11-20T00:06:39;100345.69;;;18.27;46.67
57616;BME280;43816;52.054;-9.494;2022-11-20T00:06:49;100332.94;;;18.20;46.77
57616;BME280;43816;52.054;-9.494;2022-11-20T00:07:02;100331.56;;;18.24;46.77
57616;BME280;43816;52.054;-9.494;2022-11-20T00:07:13;100315.81;;;18.11;46.80
57616;BME280;43816;52.054;-9.494;2022-11-20T00:07:23;100343.78;;;18.28;46.87
57616;BME280;43816;52.054;-9.494;2022-11-20T00:07:33;100346.88;;;18.25;46.77
57616;BME280;43816;52.054;-9.494;2022-11-20T00:07:46;100333.97;;;18.19;46.50
57616;BME280;43816;52.054;-9.494;2022-11-20T00:07:57;100348.56;;;18.26;46.81
57616;BME280;43816;52.054;-9.494;2022-11-20T00:08:10;100346.50;;;18.28;46.67
57616;BME280;43816;52.054;-9.494;2022-11-20T00:08:20;100341.09;;;18.20;46.92
57616;BME280;43816;52.054;-9.494;2022-11-20T00:08:31;100331.94;;;18.21;46.84
57616;BME280;43816;52.054;-9.494;2022-11-20T00:08:42;100336.53;;;18.20;46.73
57616;BME280;43816;52.054;-9.494;2022-11-20T00:08:55;100347.34;;;18.28;46.59
57616;BME280;43816;52.054;-9.494;2022-11-20T00:09:06;100349.25;;;18.28;46.60
57616;BME280;43816;52.054;-9.494;2022-11-20T00:09:16;100342.81;;;18.21;46.84
57616;BME280;43816;52.054;-9.494;2022-11-20T00:09:29;100345.69;;;18.27;46.69
57616;BME280;43816;52.054;-9.494;2022-11-20T00:09:39;100336.31;;;18.22;46.83
57616;BME280;43816;52.054;-9.494;2022-11-20T00:09:50;100341.91;;;18.28;46.52
57616;BME280;43816;52.054;-9.494;2022-11-20T00:10:03;100341.78;;;18.22;46.89
57616;BME280;43816;52.054;-9.494;2022-11-20T00:10:13;100333.59;;;18.22;46.75
57616;BME280;43816;52.054;-9.494;2022-11-20T00:10:24;100338.03;;;18.23;46.68
57616;BME280;43816;52.054;-9.494;2022-11-20T00:10:40;100341.06;;;18.28;46.71
57616;BME280;43816;52.054;-9.494;2022-11-20T00:10:51;100345.84;;;18.26;46.86
57616;BME280;43816;52.054;-9.494;2022-11-20T00:11:10;100331.56;;;18.24;46.72
57616;BME280;43816;52.054;-9.494;2022-11-20T00:11:25;100334.28;;;18.24;46.64
57616;BME280;43816;52.054;-9.494;2022-11-20T00:11:36;100327.84;;;18.17;46.85
57616;BME280;43816;52.054;-9.494;2022-11-20T00:11:46;100332.59;;;18.23;46.48
57616;BME280;43816;52.054;-9.494;2022-11-20T00:12:00;100329.88;;;18.23;46.92
57616;BME280;43816;52.054;-9.494;2022-11-20T00:12:10;100333.81;;;18.20;46.62
57616;BME280;43816;52.054;-9.494;2022-11-20T00:12:20;100340.41;;;18.26;46.55
57616;BME280;43816;52.054;-9.494;2022-11-20T00:12:31;100333.59;;;18.22;46.72
57616;BME280;43816;52.054;-9.494;2022-11-20T00:12:44;100324.28;;;18.16;46.56
57616;BME280;43816;52.054;-9.494;2022-11-20T00:12:54;100339.56;;;18.25;46.62
57616;BME280;43816;52.054;-9.494;2022-11-20T00:13:05;100336.31;;;18.22;46.55
57616;BME280;43816;52.054;-9.494;2022-11-20T00:13:15;100336.84;;;18.25;46.71
57616;BME280;43816;52.054;-9.494;2022-11-20T00:13:25;100335.66;;;18.20;46.84
57616;BME280;43816;52.054;-9.494;2022-11-20T00:13:36;100326.47;;;18.21;46.96
57616;BME280;43816;52.054;-9.494;2022-11-20T00:13:48;100333.59;;;18.22;46.78
57616;BME280;43816;52.054;-9.494;2022-11-20T00:14:00;100339.56;;;18.25;46.76
57616;BME280;43816;52.054;-9.494;2022-11-20T00:14:14;100335.97;;;18.25;46.72
57616;BME280;43816;52.054;-9.494;2022-11-20T00:14:24;100331.94;;;18.21;46.76
57616;BME280;43816;52.054;-9.494;2022-11-20T00:14:34;100321.56;;;18.16;46.62
57616;BME280;43816;52.054;-9.494;2022-11-20T00:14:45;100343.13;;;18.26;46.74
57616;BME280;43816;52.054;-9.494;2022-11-20T00:14:55;100335.97;;;18.25;46.66
57616;BME280;43816;52.054;-9.494;2022-11-20T00:15:05;100335.97;;;18.25;46.76
57616;BME280;43816;52.054;-9.494;2022-11-20T00:15:19;100332.59;;;18.23;46.98
57616;BME280;43816;52.054;-9.494;2022-11-20T00:15:29;100329.06;;;18.14;46.78
57616;BME280;43816;52.054;-9.494;2022-11-20T00:15:39;100333.97;;;18.19;46.50
57616;BME280;43816;52.054;-9.494;2022-11-20T00:15:57;100336.31;;;18.22;46.57
57616;BME280;43816;52.054;-9.494;2022-11-20T00:16:13;100344.16;;;18.25;46.86
57616;BME280;43816;52.054;-9.494;2022-11-20T00:16:29;100334.66;;;18.21;46.89
57616;BME280;43816;52.054;-9.494;2022-11-20T00:16:40;100340.59;;;18.24;46.79
57616;BME280;43816;52.054;-9.494;2022-11-20T00:16:53;100334.66;;;18.21;46.66
57616;BME280;43816;52.054;-9.494;2022-11-20T00:17:03;100332.94;;;18.20;46.60
57616;BME280;43816;52.054;-9.494;2022-11-20T00:17:16;100328.72;;;18.17;46.85
57616;BME280;43816;52.054;-9.494;2022-11-20T00:17:27;100322.78;;;18.14;46.70
57616;BME280;43816;52.054;-9.494;2022-11-20T00:17:37;100336.31;;;18.22;46.59
57616;BME280;43816;52.054;-9.494;2022-11-20T00:17:47;100344.50;;;18.22;46.81
57616;BME280;43816;52.054;-9.494;2022-11-20T00:17:58;100344.31;;;18.23;46.89
57616;BME280;43816;52.054;-9.494;2022-11-20T00:18:08;100337.03;;;18.24;46.87
57616;BME280;43816;52.054;-9.494;2022-11-20T00:18:18;100325.31;;;18.15;46.94
57616;BME280;43816;52.054;-9.494;2022-11-20T00:18:29;100331.44;;;18.17;46.71
57616;BME280;43816;52.054;-9.494;2022-11-20T00:18:39;100346.19;;;18.23;46.85
57616;BME280;43816;52.054;-9.494;2022-11-20T00:18:50;100339.75;;;18.24;46.69
57616;BME280;43816;52.054;-9.494;2022-11-20T00:19:01;100341.59;;;18.23;46.80
57616;BME280;43816;52.054;-9.494;2022-11-20T00:19:11;100331.94;;;18.21;46.72
57616;BME280;43816;52.054;-9.494;2022-11-20T00:19:24;100330.56;;;18.17;46.91
57616;BME280;43816;52.054;-9.494;2022-11-20T00:19:35;100349.59;;;18.25;46.90
57616;BME280;43816;52.054;-9.494;2022-11-20T00:19:45;100339.25;;;18.20;46.66
57616;BME280;43816;52.054;-9.494;2022-11-20T00:19:55;100345.19;;;18.24;46.59
57616;BME280;43816;52.054;-9.494;2022-11-20T00:20:06;100346.03;;;18.24;46.72
57616;BME280;43816;52.054;-9.494;2022-11-20T00:20:16;100344.69;;;18.20;46.82
57616;BME280;43816;52.054;-9.494;2022-11-20T00:20:27;100329.72;;;18.16;46.51
57616;BME280;43816;52.054;-9.494;2022-11-20T00:20:37;100337.19;;;18.22;46.70
57616;BME280;43816;52.054;-9.494;2022-11-20T00:20:50;100347.03;;;18.23;46.70
57616;BME280;43816;52.054;-9.494;2022-11-20T00:21:38;100337.91;;;18.16;46.91
57616;BME280;43816;52.054;-9.494;2022-11-20T00:21:41;100343.47;;;18.23;46.64
57616;BME280;43816;52.054;-9.494;2022-11-20T00:21:54;100343.81;;;18.20;46.63
57616;BME280;43816;52.054;-9.494;2022-11-20T00:22:07;100333.47;;;18.15;46.75
57616;BME280;43816;52.054;-9.494;2022-11-20T00:22:20;100346.56;;;18.20;46.70
57616;BME280;43816;52.054;-9.494;2022-11-20T00:22:30;100347.59;;;18.19;46.85
57616;BME280;43816;52.054;-9.494;2022-11-20T00:22:40;100338.91;;;18.15;46.88
57616;BME280;43816;52.054;-9.494;2022-11-20T00:22:51;100344.50;;;18.22;46.87
57616;BME280;43816;52.054;-9.494;2022-11-20T00:23:01;100344.34;;;18.15;46.57
57616;BME280;43816;52.054;-9.494;2022-11-20T00:23:11;100355.22;;;18.23;46.88
57616;BME280;43816;52.054;-9.494;2022-11-20T00:23:22;100344.88;;;18.19;47.02
57616;BME280;43816;52.054;-9.494;2022-11-20T00:23:32;100341.63;;;18.15;46.86
57616;BME280;43816;52.054;-9.494;2022-11-20T00:23:43;100327.72;;;18.10;46.93
57616;BME280;43816;52.054;-9.494;2022-11-20T00:23:55;100350.81;;;18.22;46.79
57616;BME280;43816;52.054;-9.494;2022-11-20T00:24:07;100348.09;;;18.22;46.84
57616;BME280;43816;52.054;-9.494;2022-11-20T00:24:21;100350.81;;;18.22;46.81
57616;BME280;43816;52.054;-9.494;2022-11-20T00:24:31;100353.72;;;18.21;46.56
57616;BME280;43816;52.054;-9.494;2022-11-20T00:24:42;100335.34;;;18.15;46.89
57616;BME280;43816;52.054;-9.494;2022-11-20T00:24:52;100347.94;;;18.16;46.92
57616;BME280;43816;52.054;-9.494;2022-11-20T00:25:02;100344.88;;;18.19;46.60
57616;BME280;43816;52.054;-9.494;2022-11-20T00:25:13;100326.88;;;18.09;46.92
57616;BME280;43816;52.054;-9.494;2022-11-20T00:25:26;100346.91;;;18.17;46.49
57616;BME280;43816;52.054;-9.494;2022-11-20T00:25:36;100336.41;;;18.14;46.83
57616;BME280;43816;52.054;-9.494;2022-11-20T00:25:47;100351.81;;;18.21;46.87
57616;BME280;43816;52.054;-9.494;2022-11-20T00:26:02;100350.31;;;18.19;46.77
57616;BME280;43816;52.054;-9.494;2022-11-20T00:26:17;100338.41;;;18.11;46.70
57616;BME280;43816;52.054;-9.494;2022-11-20T00:26:28;100355.38;;;18.22;46.93
57616;BME280;43816;52.054;-9.494;2022-11-20T00:26:38;100332.97;;;18.11;46.83
57616;BME280;43816;52.054;-9.494;2022-11-20T00:26:49;100358.09;;;18.22;46.80
57616;BME280;43816;52.054;-9.494;2022-11-20T00:26:59;100332.44;;;18.16;46.85
57616;BME280;43816;52.054;-9.494;2022-11-20T00:27:09;100326.22;;;18.07;46.77
57616;BME280;43816;52.054;-9.494;2022-11-20T00:27:22;100337.06;;;18.16;46.77
57616;BME280;43816;52.054;-9.494;2022-11-20T00:27:36;100331.78;;;18.14;46.69
57616;BME280;43816;52.054;-9.494;2022-11-20T00:27:46;100340.09;;;18.21;46.75
57616;BME280;43816;52.054;-9.494;2022-11-20T00:27:56;100345.53;;;18.21;46.58
57616;BME280;43816;52.054;-9.494;2022-11-20T00:28:07;100326.88;;;18.09;46.83
57616;BME280;43816;52.054;-9.494;2022-11-20T00:28:17;100331.97;;;18.12;46.87
57616;BME280;43816;52.054;-9.494;2022-11-20T00:28:30;100345.53;;;18.21;46.66
57616;BME280;43816;52.054;-9.494;2022-11-20T00:28:42;100340.78;;;18.15;46.62
57616;BME280;43816;52.054;-9.494;2022-11-20T00:28:55;100338.06;;;18.15;46.70
57616;BME280;43816;52.054;-9.494;2022-11-20T00:29:08;100336.19;;;18.15;46.59
57616;BME280;43816;52.054;-9.494;2022-11-20T00:29:19;100340.94;;;18.21;46.59
57616;BME280;43816;52.054;-9.494;2022-11-20T00:29:29;100326.53;;;18.12;46.56
57616;BME280;43816;52.054;-9.494;2022-11-20T00:29:39;100338.22;;;18.21;46.80
57616;BME280;43816;52.054;-9.494;2022-11-20T00:29:49;100329.91;;;18.15;46.77
57616;BME280;43816;52.054;-9.494;2022-11-20T00:30:00;100333.69;;;18.14;46.65
57616;BME280;43816;52.054;-9.494;2022-11-20T00:30:10;100341.63;;;18.15;46.78
57616;BME280;43816;52.054;-9.494;2022-11-20T00:30:21;100327.72;;;18.10;46.47
57616;BME280;43816;52.054;-9.494;2022-11-20T00:30:31;100333.69;;;18.14;46.80
57616;BME280;43816;52.054;-9.494;2022-11-20T00:30:41;100338.75;;;18.17;46.24
57616;BME280;43816;52.054;-9.494;2022-11-20T00:30:51;100321.59;;;18.08;46.74
57616;BME280;43816;52.054;-9.494;2022-11-20T00:31:11;100340.09;;;18.21;46.67
57616;BME280;43816;52.054;-9.494;2022-11-20T00:31:22;100318.88;;;18.08;46.83
57616;BME280;43816;52.054;-9.494;2022-11-20T00:31:37;100313.78;;;18.05;46.68
57616;BME280;43816;52.054;-9.494;2022-11-20T00:31:47;100338.38;;;18.20;46.75
57616;BME280;43816;52.054;-9.494;2022-11-20T00:31:58;100330.25;;;18.11;46.67
57616;BME280;43816;52.054;-9.494;2022-11-20T00:32:11;100329.41;;;18.11;46.61
57616;BME280;43816;52.054;-9.494;2022-11-20T00:32:21;100341.47;;;18.17;46.85
57616;BME280;43816;52.054;-9.494;2022-11-20T00:32:35;100326.69;;;18.11;46.74
57616;BME280;43816;52.054;-9.494;2022-11-20T00:32:45;100336.72;;;18.19;46.77
57616;BME280;43816;52.054;-9.494;2022-11-20T00:32:58;100318.22;;;18.06;46.78
57616;BME280;43816;52.054;-9.494;2022-11-20T00:33:11;100324.81;;;18.11;46.81
57616;BME280;43816;52.054;-9.494;2022-11-20T00:33:21;100325.84;;;18.10;46.65
57616;BME280;43816;52.054;-9.494;2022-11-20T00:33:33;100333.13;;;18.18;46.90
57616;BME280;43816;52.054;-9.494;2022-11-20T00:33:47;100331.25;;;18.19;46.65
57616;BME280;43816;52.054;-9.494;2022-11-20T00:33:57;100308.53;;;18.03;46.61
57616;BME280;43816;52.054;-9.494;2022-11-20T00:34:09;100325.16;;;18.08;46.92
57616;BME280;43816;52.054;-9.494;2022-11-20T00:34:19;100320.59;;;18.09;46.91
57616;BME280;43816;52.054;-9.494;2022-11-20T00:34:30;100326.88;;;18.09;46.71
57616;BME280;43816;52.054;-9.494;2022-11-20T00:34:40;100336.19;;;18.15;46.54
57616;BME280;43816;52.054;-9.494;2022-11-20T00:34:50;100336.19;;;18.15;46.53
57616;BME280;43816;52.054;-9.494;2022-11-20T00:35:00;100319.72;;;18.08;46.56
57616;BME280;43816;52.054;-9.494;2022-11-20T00:35:11;100339.59;;;18.17;46.60
57616;BME280;43816;52.054;-9.494;2022-11-20T00:35:21;100339.59;;;18.17;46.59
57616;BME280;43816;52.054;-9.494;2022-11-20T00:35:31;100322.66;;;18.07;46.84
57616;BME280;43816;52.054;-9.494;2022-11-20T00:35:41;100317.19;;;18.07;46.86
57616;BME280;43816;52.054;-9.494;2022-11-20T00:35:52;100327.72;;;18.10;46.85
57616;BME280;43816;52.054;-9.494;2022-11-20T00:36:04;100341.47;;;18.17;46.73
57616;BME280;43816;52.054;-9.494;2022-11-20T00:36:17;100319.72;;;18.08;46.50
57616;BME280;43816;52.054;-9.494;2022-11-20T00:36:29;100323.78;;;18.12;46.89
57616;BME280;43816;52.054;-9.494;2022-11-20T00:36:41;100302.75;;;17.98;47.10
57616;BME280;43816;52.054;-9.494;2022-11-20T00:36:52;100333.47;;;18.15;46.89
57616;BME280;43816;52.054;-9.494;2022-11-20T00:37:02;100323.63;;;18.14;46.60
57616;BME280;43816;52.054;-9.494;2022-11-20T00:37:12;100330.56;;;18.17;46.88
57616;BME280;43816;52.054;-9.494;2022-11-20T00:37:22;100340.78;;;18.15;46.92
57616;BME280;43816;52.054;-9.494;2022-11-20T00:37:33;100333.28;;;18.17;46.60
57616;BME280;43816;52.054;-9.494;2022-11-20T00:37:43;100333.28;;;18.17;46.74
57616;BME280;43816;52.054;-9.494;2022-11-20T00:37:53;100324.31;;;18.08;46.68
57616;BME280;43816;52.054;-9.494;2022-11-20T00:38:03;100324.16;;;18.09;46.73
57616;BME280;43816;52.054;-9.494;2022-11-20T00:38:14;100319.94;;;18.07;46.88
57616;BME280;43816;52.054;-9.494;2022-11-20T00:38:24;100333.47;;;18.15;46.86
57616;BME280;43816;52.054;-9.494;2022-11-20T00:38:35;100331.78;;;18.14;46.85
57616;BME280;43816;52.054;-9.494;2022-11-20T00:39:07;100319.72;;;18.08;46.58
57616;BME280;43816;52.054;-9.494;2022-11-20T00:39:16;100324.16;;;18.09;46.64
57616;BME280;43816;52.054;-9.494;2022-11-20T00:39:29;100324.31;;;18.08;46.64
57616;BME280;43816;52.054;-9.494;2022-11-20T00:39:39;100325.16;;;18.08;46.77
57616;BME280;43816;52.054;-9.494;2022-11-20T00:39:49;100318.38;;;18.04;46.62
57616;BME280;43816;52.054;-9.494;2022-11-20T00:40:03;100322.09;;;18.11;46.62
57616;BME280;43816;52.054;-9.494;2022-11-20T00:40:13;100326.88;;;18.09;46.97
57616;BME280;43816;52.054;-9.494;2022-11-20T00:40:24;100318.03;;;18.07;46.78
57616;BME280;43816;52.054;-9.494;2022-11-20T00:40:34;100328.91;;;18.16;46.69
57616;BME280;43816;52.054;-9.494;2022-11-20T00:40:44;100332.63;;;18.15;46.70
57616;BME280;43816;52.054;-9.494;2022-11-20T00:41:02;100333.47;;;18.15;46.67
57616;BME280;43816;52.054;-9.494;2022-11-20T00:41:14;100341.63;;;18.15;46.57
57616;BME280;43816;52.054;-9.494;2022-11-20T00:41:29;100328.56;;;18.10;46.72
57616;BME280;43816;52.054;-9.494;2022-11-20T00:41:39;100327.34;;;18.13;46.80
57616;BME280;43816;52.054;-9.494;2022-11-20T00:41:52;100306.69;;;17.96;46.44
57616;BME280;43816;52.054;-9.494;2022-11-20T00:42:02;100307.19;;;17.99;46.75
57616;BME280;43816;52.054;-9.494;2022-11-20T00:42:15;100334.03;;;18.10;46.67
57616;BME280;43816;52.054;-9.494;2022-11-20T00:42:26;100304.47;;;17.99;46.46
57616;BME280;43816;52.054;-9.494;2022-11-20T00:42:39;100319.06;;;18.06;46.51
57616;BME280;43816;52.054;-9.494;2022-11-20T00:42:49;100311.63;;;18.00;46.64
57616;BME280;43816;52.054;-9.494;2022-11-20T00:42:59;100328.22;;;18.14;46.75
57616;BME280;43816;52.054;-9.494;2022-11-20T00:43:10;100325.84;;;18.10;46.53
57616;BME280;43816;52.054;-9.494;2022-11-20T00:43:20;100313.44;;;18.08;46.75
57616;BME280;43816;52.054;-9.494;2022-11-20T00:43:30;100317.38;;;18.05;46.74
57616;BME280;43816;52.054;-9.494;2022-11-20T00:43:41;100322.78;;;18.14;46.78
57616;BME280;43816;52.054;-9.494;2022-11-20T00:43:53;100322.25;;;18.10;46.83
57616;BME280;43816;52.054;-9.494;2022-11-20T00:44:03;100327.34;;;18.13;46.65
57616;BME280;43816;52.054;-9.494;2022-11-20T00:44:14;100323.78;;;18.12;46.77
57616;BME280;43816;52.054;-9.494;2022-11-20T00:44:24;100325.16;;;18.08;46.79
57616;BME280;43816;52.054;-9.494;2022-11-20T00:44:34;100323.78;;;18.12;46.92
57616;BME280;43816;52.054;-9.494;2022-11-20T00:44:44;100318.72;;;18.09;46.71
57616;BME280;43816;52.054;-9.494;2022-11-20T00:44:57;100314.66;;;18.05;46.69
57616;BME280;43816;52.054;-9.494;2022-11-20T00:45:08;100324.16;;;18.09;46.68
57616;BME280;43816;52.054;-9.494;2022-11-20T00:45:18;100313.28;;;18.01;46.65
57616;BME280;43816;52.054;-9.494;2022-11-20T00:45:29;100320.94;;;18.06;46.67
57616;BME280;43816;52.054;-9.494;2022-11-20T00:45:39;100319.72;;;18.08;46.82
57616;BME280;43816;52.054;-9.494;2022-11-20T00:45:59;100320.59;;;18.09;46.59
57616;BME280;43816;52.054;-9.494;2022-11-20T00:46:17;100322.44;;;18.08;46.63
57616;BME280;43816;52.054;-9.494;2022-11-20T00:46:28;100304.47;;;17.99;46.70
57616;BME280;43816;52.054;-9.494;2022-11-20T00:46:41;100323.13;;;18.10;46.83
57616;BME280;43816;52.054;-9.494;2022-11-20T00:46:52;100317.88;;;18.09;46.64
57616;BME280;43816;52.054;-9.494;2022-11-20T00:47:05;100305.78;;;18.03;46.61
57616;BME280;43816;52.054;-9.494;2022-11-20T00:47:15;100323.97;;;18.11;46.74
57616;BME280;43816;52.054;-9.494;2022-11-20T00:47:26;100292.56;;;18.00;46.58
57616;BME280;43816;52.054;-9.494;2022-11-20T00:47:36;100314.66;;;18.05;46.79
57616;BME280;43816;52.054;-9.494;2022-11-20T00:47:46;100318.53;;;18.11;46.70
57616;BME280;43816;52.054;-9.494;2022-11-20T00:47:59;100308.53;;;18.03;46.80
57616;BME280;43816;52.054;-9.494;2022-11-20T00:48:10;100310.53;;;18.09;46.97
57616;BME280;43816;52.054;-9.494;2022-11-20T00:48:20;100318.72;;;18.09;46.82
57616;BME280;43816;52.054;-9.494;2022-11-20T00:48:30;100307.31;;;18.06;46.68
57616;BME280;43816;52.054;-9.494;2022-11-20T00:48:42;100314.97;;;18.10;46.74
57616;BME280;43816;52.054;-9.494;2022-11-20T00:48:52;100309.56;;;18.02;46.67
57616;BME280;43816;52.054;-9.494;2022-11-20T00:49:02;100299.50;;;18.03;46.73
57616;BME280;43816;52.054;-9.494;2022-11-20T00:49:13;100283.41;;;17.93;46.63
57616;BME280;43816;52.054;-9.494;2022-11-20T00:49:23;100312.78;;;18.06;46.69
57616;BME280;43816;52.054;-9.494;2022-11-20T00:49:33;100302.22;;;18.03;46.85
57616;BME280;43816;52.054;-9.494;2022-11-20T00:49:43;100291.88;;;17.98;46.72
57616;BME280;43816;52.054;-9.494;2022-11-20T00:49:54;100307.84;;;18.01;46.56
57616;BME280;43816;52.054;-9.494;2022-11-20T00:50:04;100303.44;;;18.00;46.62
57616;BME280;43816;52.054;-9.494;2022-11-20T00:50:18;100299.03;;;17.99;46.64
57616;BME280;43816;52.054;-9.494;2022-11-20T00:50:28;100303.25;;;18.02;46.83
57616;BME280;43816;52.054;-9.494;2022-11-20T00:50:41;100301.41;;;18.02;46.73
57616;BME280;43816;52.054;-9.494;2022-11-20T00:50:52;100312.59;;;18.07;46.81
57616;BME280;43816;52.054;-9.494;2022-11-20T00:51:03;100298.66;;;18.02;46.72
57616;BME280;43816;52.054;-9.494;2022-11-20T00:51:19;100310.72;;;18.08;46.81
57616;BME280;43816;52.054;-9.494;2022-11-20T00:51:29;100305.13;;;18.01;46.75
57616;BME280;43816;52.054;-9.494;2022-11-20T00:51:40;100305.78;;;18.03;46.61
57616;BME280;43816;52.054;-9.494;2022-11-20T00:51:53;100293.09;;;17.96;46.57
57616;BME280;43816;52.054;-9.494;2022-11-20T00:52:03;100296.31;;;17.99;46.72
57616;BME280;43816;52.054;-9.494;2022-11-20T00:52:14;100299.03;;;17.99;46.92
57616;BME280;43816;52.054;-9.494;2022-11-20T00:52:24;100301.41;;;18.02;46.73
57616;BME280;43816;52.054;-9.494;2022-11-20T00:52:34;100297.31;;;17.98;46.91
57616;BME280;43816;52.054;-9.494;2022-11-20T00:52:44;100311.75;;;18.07;46.98
57616;BME280;43816;52.054;-9.494;2022-11-20T00:52:57;100320.75;;;18.07;46.95
57616;BME280;43816;52.054;-9.494;2022-11-20T00:53:08;100309.56;;;18.02;46.78
57616;BME280;43816;52.054;-9.494;2022-11-20T00:53:21;100316.50;;;18.05;46.75
57616;BME280;43816;52.054;-9.494;2022-11-20T00:53:33;100319.06;;;18.06;46.96
57616;BME280;43816;52.054;-9.494;2022-11-20T00:53:43;100319.94;;;18.07;46.67
57616;BME280;43816;52.054;-9.494;2022-11-20T00:53:57;100309.06;;;17.99;46.71
57616;BME280;43816;52.054;-9.494;2022-11-20T00:54:11;100313.47;;;18.00;47.05
57616;BME280;43816;52.054;-9.494;2022-11-20T00:54:24;100320.09;;;18.05;46.95
57616;BME280;43816;52.054;-9.494;2022-11-20T00:54:34;100308.19;;;17.98;46.68
57616;BME280;43816;52.054;-9.494;2022-11-20T00:54:44;100306.53;;;17.97;46.67
57616;BME280;43816;52.054;-9.494;2022-11-20T00:54:54;100316.69;;;18.03;46.81
57616;BME280;43816;52.054;-9.494;2022-11-20T00:55:05;100309.91;;;17.99;46.77
57616;BME280;43816;52.054;-9.494;2022-11-20T00:55:15;100312.63;;;17.99;46.82
57616;BME280;43816;52.054;-9.494;2022-11-20T00:55:25;100309.06;;;17.99;46.82
57616;BME280;43816;52.054;-9.494;2022-11-20T00:55:36;100318.75;;;18.01;46.68
57616;BME280;43816;52.054;-9.494;2022-11-20T00:55:59;100319.06;;;18.06;46.71
57616;BME280;43816;52.054;-9.494;2022-11-20T00:56:12;100314.13;;;18.02;46.78
57616;BME280;43816;52.054;-9.494;2022-11-20T00:56:27;100315.00;;;18.02;46.70
57616;BME280;43816;52.054;-9.494;2022-11-20T00:56:37;100303.44;;;18.00;46.73
57616;BME280;43816;52.054;-9.494;2022-11-20T00:56:47;100314.66;;;18.05;46.85
57616;BME280;43816;52.054;-9.494;2022-11-20T00:56:58;100312.63;;;17.99;46.77
57616;BME280;43816;52.054;-9.494;2022-11-20T00:57:08;100304.28;;;18.01;46.80
57616;BME280;43816;52.054;-9.494;2022-11-20T00:57:18;100317.38;;;18.05;46.80
57616;BME280;43816;52.054;-9.494;2022-11-20T00:57:31;100300.22;;;17.97;46.76
57616;BME280;43816;52.054;-9.494;2022-11-20T00:57:42;100305.31;;;18.00;46.82
57616;BME280;43816;52.054;-9.494;2022-11-20T00:57:52;100294.94;;;17.95;46.90
57616;BME280;43816;52.054;-9.494;2022-11-20T00:58:02;100308.91;;;18.00;47.03
57616;BME280;43816;52.054;-9.494;2022-11-20T00:58:12;100303.81;;;17.97;46.63
57616;BME280;43816;52.054;-9.494;2022-11-20T00:58:30;100310.75;;;18.00;46.63
57616;BME280;43816;52.054;-9.494;2022-11-20T00:58:43;100320.09;;;18.05;46.44
57616;BME280;43816;52.054;-9.494;2022-11-20T00:58:54;100302.75;;;17.98;46.79
57616;BME280;43816;52.054;-9.494;2022-11-20T00:59:05;100299.38;;;17.96;46.88
57616;BME280;43816;52.054;-9.494;2022-11-20T00:59:15;100309.06;;;17.99;46.75
57616;BME280;43816;52.054;-9.494;2022-11-20T00:59:25;100311.25;;;18.03;46.86
57616;BME280;43816;52.054;-9.494;2022-11-20T00:59:35;100311.63;;;18.00;46.91
57616;BME280;43816;52.054;-9.494;2022-11-20T00:59:46;100298.72;;;17.94;46.80
57616;BME280;43816;52.054;-9.494;2022-11-20T00:59:59;100308.19;;;17.98;46.81